Time;durP1;ratioP1;P1;durP2;ratioP2;P2;SDS_P1;SDS_P2;PMS_P1;PMS_P2;Temp;Humidity;BMP_temperature;BMP_pressure;BME280_temperature;BME280_humidity;BME280_pressure;Samples;Min_cycle;Max_cycle;Signal;HPM_P1;HPM_P2
2022/07/17 00:00:47;;;;;;;7.37;4.37;;;;;;;12.19;87.23;99416.40;2173845;81;20882;-81
2022/07/17 00:03:47;;;;;;;9.50;3.50;;;;;;;12.53;85.19;99425.17;2173825;81;20981;-80
2022/07/17 00:06:47;;;;;;;6.35;3.00;;;;;;;12.74;83.69;99422.82;2173835;81;20945;-79
2022/07/17 00:09:48;;;;;;;7.80;3.07;;;;;;;12.95;82.37;99425.24;2173762;81;21000;-80
2022/07/17 00:12:48;;;;;;;6.47;3.37;;;;;;;12.89;80.66;99429.10;2173546;81;20909;-79
2022/07/17 00:15:49;;;;;;;4.22;3.20;;;;;;;12.69;80.17;99427.13;2173728;82;20945;-79
2022/07/17 00:18:49;;;;;;;15.55;2.95;;;;;;;12.74;80.61;99433.73;2173708;81;20969;-79
2022/07/17 00:21:49;;;;;;;6.95;3.10;;;;;;;12.48;80.30;99429.47;2173517;81;21375;-79
2022/07/17 00:24:50;;;;;;;4.67;3.00;;;;;;;12.27;80.63;99438.33;2173454;81;20952;-79
2022/07/17 00:27:50;;;;;;;6.08;3.05;;;;;;;12.17;81.81;99440.36;2173619;81;20929;-80
2022/07/17 00:30:51;;;;;;;7.17;3.47;;;;;;;12.19;82.60;99433.41;2173634;81;20893;-80
2022/07/17 00:33:51;;;;;;;7.03;3.33;;;;;;;12.36;80.68;99443.70;2173537;82;21338;-81
2022/07/17 00:36:51;;;;;;;4.87;2.77;;;;;;;11.99;80.24;99438.31;2173553;81;20941;-80
2022/07/17 00:39:52;;;;;;;6.90;3.50;;;;;;;11.73;80.82;99444.40;2173776;82;20910;-80
2022/07/17 00:42:52;;;;;;;6.63;3.30;;;;;;;11.51;81.58;99447.50;2173405;81;20917;-79
2022/07/17 00:45:53;;;;;;;7.83;4.00;;;;;;;11.36;81.70;99451.60;2173385;81;20917;-81
2022/07/17 00:48:53;;;;;;;7.03;3.30;;;;;;;11.23;82.37;99451.31;2173363;81;20933;-80
2022/07/17 00:51:53;;;;;;;5.77;3.43;;;;;;;11.15;82.84;99461.19;2173560;82;20937;-80
2022/07/17 00:54:54;;;;;;;7.37;3.30;;;;;;;11.05;83.57;99460.56;2173921;81;20921;-80
2022/07/17 00:57:54;;;;;;;9.13;3.37;;;;;;;10.98;83.29;99457.38;2173370;81;20917;-79
2022/07/17 01:00:55;;;;;;;8.93;3.00;;;;;;;10.92;83.87;99461.17;2173590;81;20941;-80
2022/07/17 01:03:55;;;;;;;6.70;3.60;;;;;;;10.87;83.80;99460.63;2173724;81;21301;-79
2022/07/17 01:06:55;;;;;;;5.87;2.90;;;;;;;10.82;84.05;99461.41;2173898;81;20894;-80
2022/07/17 01:09:56;;;;;;;5.53;2.87;;;;;;;10.78;84.64;99461.31;2172180;81;21020;-80
2022/07/17 01:12:57;;;;;;;6.23;3.13;;;;;;;10.75;84.82;99469.08;2171547;81;21332;-81
2022/07/17 01:15:57;;;;;;;6.17;3.00;;;;;;;10.72;84.64;99461.19;2171465;81;21314;-80
2022/07/17 01:18:57;;;;;;;5.67;3.20;;;;;;;10.70;85.15;99468.98;2172314;81;20936;-79
2022/07/17 01:21:57;;;;;;;10.10;3.10;;;;;;;10.69;85.25;99465.04;2171647;82;20917;-79
2022/07/17 01:24:58;;;;;;;9.20;3.27;;;;;;;10.67;84.77;99468.92;2172468;81;21343;-80
2022/07/17 01:27:58;;;;;;;10.27;3.17;;;;;;;10.67;84.97;99470.66;2171517;81;20961;-81
2022/07/17 01:30:59;;;;;;;7.70;3.00;;;;;;;10.66;84.92;99467.58;2171508;81;20957;-79
2022/07/17 01:33:59;;;;;;;6.70;2.70;;;;;;;10.66;85.12;99468.89;2171609;81;21364;-80
2022/07/17 01:37:00;;;;;;;8.07;2.93;;;;;;;10.63;85.00;99463.17;2171837;81;20945;-80
2022/07/17 01:40:00;;;;;;;5.10;3.17;;;;;;;10.60;85.42;99471.37;2171679;81;20894;-80
2022/07/17 01:43:00;;;;;;;6.37;3.13;;;;;;;10.57;85.08;99469.58;2171644;81;20943;-80
2022/07/17 01:46:01;;;;;;;9.23;3.10;;;;;;;10.57;85.07;99470.00;2171817;81;20917;-80
2022/07/17 01:49:02;;;;;;;8.10;3.70;;;;;;;10.53;84.97;99465.13;2171485;81;21353;-80
2022/07/17 01:52:02;;;;;;;8.97;3.23;;;;;;;10.53;85.14;99465.13;2171394;81;20929;-79
2022/07/17 01:55:03;;;;;;;5.77;2.87;;;;;;;10.53;85.54;99471.66;2171609;81;20921;-80
2022/07/17 01:58:02;;;;;;;8.57;2.90;;;;;;;10.50;85.46;99467.67;2171398;82;20964;-80
2022/07/17 02:01:03;;;;;;;9.47;4.00;;;;;;;10.46;85.57;99464.12;2171428;81;20953;-79
2022/07/17 02:04:03;;;;;;;5.97;2.90;;;;;;;10.43;85.75;99462.75;2171663;81;20968;-78
2022/07/17 02:07:04;;;;;;;5.83;2.93;;;;;;;10.40;85.43;99459.16;2171490;81;20901;-79
2022/07/17 02:10:04;;;;;;;8.30;3.23;;;;;;;10.36;85.58;99466.45;2171440;81;20948;-80
2022/07/17 02:13:04;;;;;;;8.03;3.40;;;;;;;10.32;85.57;99456.80;2171337;81;20881;-79
2022/07/17 02:16:05;;;;;;;10.03;3.90;;;;;;;10.30;85.61;99459.80;2171559;81;20949;-79
2022/07/17 02:19:05;;;;;;;6.87;3.23;;;;;;;10.27;85.54;99454.51;2170991;81;20933;-79
2022/07/17 02:22:06;;;;;;;7.90;3.10;;;;;;;10.21;85.66;99453.52;2171446;81;20921;-79
2022/07/17 02:25:06;;;;;;;9.13;3.27;;;;;;;10.17;85.90;99456.88;2171128;81;21317;-78
2022/07/17 02:28:06;;;;;;;7.97;3.20;;;;;;;10.13;86.12;99449.82;2171429;81;20886;-79
2022/07/17 02:31:07;;;;;;;8.53;3.10;;;;;;;10.10;85.94;99454.97;2170967;81;20925;-79
2022/07/17 02:34:07;;;;;;;10.23;3.73;;;;;;;10.07;86.24;99463.14;2171187;81;21369;-79
2022/07/17 02:37:08;;;;;;;10.67;3.50;;;;;;;10.03;86.18;99462.61;2170567;81;20886;-79
2022/07/17 02:40:08;;;;;;;7.10;3.00;;;;;;;10.00;86.17;99460.81;2170618;80;20925;-79
2022/07/17 02:43:08;;;;;;;11.13;3.50;;;;;;;9.97;86.47;99468.56;2171257;81;21304;-79
2022/07/17 02:46:09;;;;;;;4.87;3.17;;;;;;;9.95;86.85;99478.50;2171389;81;20933;-80
2022/07/17 02:49:09;;;;;;;9.07;3.77;;;;;;;9.92;86.64;99469.30;2171363;81;21044;-79
2022/07/17 02:52:10;;;;;;;7.13;3.10;;;;;;;9.92;86.92;99478.00;2171058;81;21357;-79
2022/07/17 02:55:10;;;;;;;9.37;3.10;;;;;;;9.93;86.91;99482.37;2171231;81;20881;-80
2022/07/17 02:58:10;;;;;;;6.03;2.97;;;;;;;9.93;86.87;99484.10;2171039;81;20932;-79
2022/07/17 03:01:11;;;;;;;9.73;3.37;;;;;;;9.90;87.02;99487.09;2170975;81;21269;-80
2022/07/17 03:04:11;;;;;;;11.50;2.80;;;;;;;9.91;86.86;99489.28;2170482;81;20992;-79
2022/07/17 03:07:12;;;;;;;10.07;3.50;;;;;;;9.93;87.16;99499.75;2170358;81;20968;-79
2022/07/17 03:10:12;;;;;;;8.90;3.33;;;;;;;9.94;86.97;99494.99;2170369;81;20962;-79
2022/07/17 03:13:12;;;;;;;12.43;3.20;;;;;;;9.93;87.15;99501.05;2170634;81;21328;-81
2022/07/17 03:16:13;;;;;;;7.60;3.10;;;;;;;9.93;86.80;99507.15;2170484;80;21017;-79
2022/07/17 03:19:13;;;;;;;6.87;2.70;;;;;;;9.95;86.92;99505.88;2170253;81;21007;-79
2022/07/17 03:22:14;;;;;;;9.50;3.60;;;;;;;9.98;86.79;99511.17;2170257;81;20996;-79
2022/07/17 03:25:14;;;;;;;11.40;2.90;;;;;;;10.02;86.80;99508.68;2170045;80;20945;-79
2022/07/17 03:28:14;;;;;;;9.63;3.03;;;;;;;10.04;86.85;99511.33;2171120;81;20965;-81
2022/07/17 03:31:15;;;;;;;8.87;3.90;;;;;;;10.07;86.79;99510.09;2171310;81;20933;-79
2022/07/17 03:34:15;;;;;;;4.30;2.53;;;;;;;10.12;86.95;99505.45;2171185;81;20953;-79
2022/07/17 03:37:16;;;;;;;8.30;3.30;;;;;;;10.14;86.54;99510.28;2171454;81;20949;-79
2022/07/17 03:40:16;;;;;;;7.67;3.03;;;;;;;10.21;86.80;99507.43;2171389;81;21265;-79
2022/07/17 03:43:16;;;;;;;10.83;4.30;;;;;;;10.29;86.54;99516.32;2171456;82;20953;-80
2022/07/17 03:46:17;;;;;;;10.13;3.60;;;;;;;10.35;86.62;99518.19;2172052;80;20953;-79
2022/07/17 03:49:17;;;;;;;10.23;3.77;;;;;;;10.41;86.38;99510.53;2171643;81;20996;-80
2022/07/17 03:52:18;;;;;;;8.33;3.40;;;;;;;10.48;86.74;99511.14;2171617;80;20940;-80
2022/07/17 03:55:18;;;;;;;8.00;3.43;;;;;;;10.77;86.75;99515.70;2171561;81;20890;-80
2022/07/17 03:58:18;;;;;;;9.10;3.13;;;;;;;11.14;87.41;99514.30;2171375;81;21348;-80
2022/07/17 04:01:19;;;;;;;7.80;3.10;;;;;;;11.40;85.71;99521.37;2171310;81;20921;-80
2022/07/17 04:04:19;;;;;;;7.70;3.23;;;;;;;11.62;84.75;99520.48;2171425;81;21005;-82
2022/07/17 04:07:30;;;;;;;9.43;2.97;;;;;;;11.76;84.12;99520.30;2171347;81;21328;-79
2022/07/17 04:10:29;;;;;;;7.00;4.03;;;;;;;12.01;83.82;99524.25;2172375;81;20997;-81
2022/07/17 04:13:29;;;;;;;12.23;5.47;;;;;;;11.86;82.58;99522.69;2173607;81;20924;-80
2022/07/17 04:16:30;;;;;;;14.53;5.97;;;;;;;11.71;82.80;99529.37;2173863;81;20913;-80
2022/07/17 04:19:30;;;;;;;14.65;5.78;;;;;;;11.68;82.99;99526.70;2173432;81;21364;-80
2022/07/17 04:22:31;;;;;;;8.13;4.43;;;;;;;11.72;83.22;99530.25;2173540;81;20949;-80
2022/07/17 04:25:31;;;;;;;7.07;3.40;;;;;;;11.81;83.15;99540.91;2173481;81;20979;-79
2022/07/17 04:28:31;;;;;;;7.53;2.70;;;;;;;11.92;83.12;99531.52;2173394;81;21341;-80
2022/07/17 04:31:32;;;;;;;10.57;3.07;;;;;;;12.06;82.69;99543.09;2173292;81;20948;-80
2022/07/17 04:34:34;;;;;;;13.60;3.03;;;;;;;12.22;82.30;99540.34;2163475;81;21281;-80
2022/07/17 04:37:35;;;;;;;6.08;2.50;;;;;;;12.38;81.96;99549.32;2173373;81;20949;-79
2022/07/17 04:40:35;;;;;;;10.28;2.80;;;;;;;12.55;81.32;99548.27;2173467;81;20948;-80
2022/07/17 04:43:35;;;;;;;8.58;2.60;;;;;;;12.73;81.16;99544.18;2173627;81;21365;-80
2022/07/17 04:46:36;;;;;;;6.37;2.60;;;;;;;12.90;80.56;99550.08;2173444;81;20960;-80
2022/07/17 04:49:36;;;;;;;10.55;2.92;;;;;;;13.07;80.09;99549.91;2173619;81;20917;-80
2022/07/17 04:52:37;;;;;;;9.55;2.80;;;;;;;13.25;79.44;99556.73;2173683;81;20977;-81
2022/07/17 04:55:37;;;;;;;7.67;2.45;;;;;;;13.31;79.04;99558.11;2173736;81;20933;-79
2022/07/17 04:58:37;;;;;;;12.07;2.37;;;;;;;13.46;78.54;99552.60;2173474;81;21012;-81
2022/07/17 05:01:38;;;;;;;6.83;2.45;;;;;;;13.57;78.04;99561.47;2174041;81;20921;-81
2022/07/17 05:04:38;;;;;;;6.67;2.42;;;;;;;13.73;77.82;99571.70;2174054;81;20980;-81
2022/07/17 05:07:39;;;;;;;4.65;2.30;;;;;;;13.90;77.53;99564.48;2174475;81;20957;-81
2022/07/17 05:10:39;;;;;;;9.95;2.77;;;;;;;14.11;77.12;99567.73;2172488;81;20968;-80
2022/07/17 05:13:39;;;;;;;7.08;2.40;;;;;;;14.25;76.01;99571.80;2171859;81;20893;-80
2022/07/17 05:16:40;;;;;;;8.83;2.25;;;;;;;14.27;75.36;99570.95;2171830;82;21291;-79
2022/07/17 05:19:40;;;;;;;8.00;2.27;;;;;;;14.35;75.19;99577.58;2171656;81;20901;-81
2022/07/17 05:22:41;;;;;;;6.67;2.65;;;;;;;14.40;74.72;99574.55;2171552;81;20984;-79
2022/07/17 05:25:41;;;;;;;11.85;2.40;;;;;;;14.43;74.43;99573.73;2170913;81;21361;-78
2022/07/17 05:28:41;;;;;;;7.83;2.60;;;;;;;14.57;75.36;99569.03;2171398;81;20996;-79
2022/07/17 05:31:42;;;;;;;8.73;2.42;;;;;;;14.79;73.96;99571.84;2171426;81;20910;-79
2022/07/17 05:34:42;;;;;;;8.43;2.60;;;;;;;14.88;73.86;99586.34;2171002;81;21427;-79
2022/07/17 05:37:43;;;;;;;4.42;2.27;;;;;;;14.92;73.24;99590.32;2171370;81;20935;-79
2022/07/17 05:40:43;;;;;;;9.25;2.00;;;;;;;14.97;73.69;99587.28;2171475;81;21009;-80
2022/07/17 05:43:43;;;;;;;9.15;2.62;;;;;;;15.06;73.02;99588.20;2171664;81;20933;-81
2022/07/17 05:46:44;;;;;;;11.28;2.92;;;;;;;15.17;72.23;99592.66;2171482;81;21294;-81
2022/07/17 05:49:44;;;;;;;15.10;2.62;;;;;;;15.18;71.75;99595.73;2171181;80;20909;-80
2022/07/17 05:52:45;;;;;;;8.98;2.40;;;;;;;15.34;72.04;99599.75;2171415;81;20925;-80
2022/07/17 05:55:45;;;;;;;3.83;2.42;;;;;;;15.40;71.65;99599.77;2171339;81;21269;-79
2022/07/17 05:58:45;;;;;;;7.75;2.80;;;;;;;15.57;71.87;99600.72;2171322;81;20972;-80
2022/07/17 06:01:48;;;;;;;7.67;2.60;;;;;;;15.69;69.89;99613.11;2170825;82;20936;-80
2022/07/17 06:04:49;;;;;;;8.85;2.90;;;;;;;15.79;70.18;99606.56;2170632;81;20969;-80
2022/07/17 06:07:49;;;;;;;7.92;3.02;;;;;;;15.91;70.20;99612.30;2170781;82;20906;-79
2022/07/17 06:10:50;;;;;;;11.78;2.30;;;;;;;16.09;69.61;99604.44;2171701;81;20968;-80
2022/07/17 06:13:50;;;;;;;8.45;2.33;;;;;;;16.17;70.11;99609.28;2172760;81;21289;-80
2022/07/17 06:16:50;;;;;;;5.17;2.25;;;;;;;16.41;69.62;99615.01;2172888;81;20917;-80
2022/07/17 06:19:51;;;;;;;7.78;2.17;;;;;;;16.49;68.52;99617.24;2172815;81;20905;-80
2022/07/17 06:22:51;;;;;;;13.15;2.42;;;;;;;16.49;68.31;99617.69;2172973;81;21372;-80
2022/07/17 06:25:54;;;;;;;11.57;2.90;;;;;;;16.61;68.22;99612.84;2162550;82;20949;-80
2022/07/17 06:28:54;;;;;;;6.95;2.55;;;;;;;16.82;68.24;99614.19;2172936;81;20972;-80
2022/07/17 06:31:54;;;;;;;13.28;2.50;;;;;;;17.00;67.99;99614.16;2173342;81;21264;-80
2022/07/17 06:34:55;;;;;;;7.78;2.33;;;;;;;17.16;67.54;99615.88;2173512;81;20923;-80
2022/07/17 06:37:55;;;;;;;4.95;2.10;;;;;;;17.26;65.80;99627.29;2173787;81;20893;-80
2022/07/17 06:40:56;;;;;;;6.47;2.17;;;;;;;17.01;66.51;99632.18;2173325;81;21269;-80
2022/07/17 06:43:56;;;;;;;8.30;2.60;;;;;;;17.10;66.92;99626.89;2173692;81;20905;-82
2022/07/17 06:46:56;;;;;;;5.60;2.00;;;;;;;17.35;66.41;99628.62;2173560;81;20910;-79
2022/07/17 06:49:57;;;;;;;7.08;2.00;;;;;;;17.52;66.72;99624.59;2173869;81;20948;-80
2022/07/17 06:52:58;;;;;;;8.10;2.15;;;;;;;17.65;66.58;99621.02;2174011;81;20910;-80
2022/07/17 06:55:58;;;;;;;7.53;2.52;;;;;;;17.94;66.09;99623.55;2173038;81;21304;-80
2022/07/17 06:58:58;;;;;;;7.87;2.55;;;;;;;18.08;65.29;99623.03;2173290;81;20988;-79
2022/07/17 07:01:58;;;;;;;3.42;2.20;;;;;;;18.12;64.53;99626.53;2173395;81;20909;-80
2022/07/17 07:04:59;;;;;;;5.30;2.25;;;;;;;18.22;64.40;99629.58;2173274;82;20956;-79
2022/07/17 07:07:59;;;;;;;7.67;2.42;;;;;;;18.41;63.69;99625.92;2173246;81;21373;-79
2022/07/17 07:11:00;;;;;;;4.53;1.80;;;;;;;18.42;62.55;99639.57;2171746;81;20977;-79
2022/07/17 07:14:00;;;;;;;6.22;2.10;;;;;;;18.48;62.56;99628.52;2171421;80;20961;-79
2022/07/17 07:17:00;;;;;;;11.55;2.10;;;;;;;18.58;62.52;99625.79;2171071;81;21300;-79
2022/07/17 07:20:01;;;;;;;7.53;2.47;;;;;;;18.84;62.78;99626.92;2171243;82;20961;-79
2022/07/17 07:23:01;;;;;;;7.78;2.20;;;;;;;19.09;60.79;99635.09;2171212;81;20949;-79
2022/07/17 07:26:02;;;;;;;8.55;2.22;;;;;;;19.14;60.76;99635.04;2171037;82;21340;-80
2022/07/17 07:29:02;;;;;;;9.48;2.08;;;;;;;19.22;59.71;99637.61;2170763;81;21015;-80
2022/07/17 07:32:02;;;;;;;7.37;2.00;;;;;;;19.27;58.72;99631.38;2171102;81;21004;-80
2022/07/17 07:35:03;;;;;;;6.03;2.10;;;;;;;19.53;60.14;99631.11;2171099;81;20940;-80
2022/07/17 07:38:03;;;;;;;7.20;2.20;;;;;;;19.91;60.07;99637.24;2171328;82;20914;-80
2022/07/17 07:41:04;;;;;;;5.37;1.80;;;;;;;20.01;56.88;99642.87;2171439;81;21325;-80
2022/07/17 07:44:04;;;;;;;4.28;1.70;;;;;;;20.35;57.38;99635.77;2171640;80;20937;-79
2022/07/17 07:47:04;;;;;;;4.70;1.98;;;;;;;20.76;54.88;99641.77;2171320;81;20914;-80
2022/07/17 07:50:05;;;;;;;3.25;1.47;;;;;;;20.63;53.46;99647.73;2171387;81;20913;-80
2022/07/17 07:53:05;;;;;;;5.50;2.12;;;;;;;20.25;52.74;99645.63;2171693;80;20928;-81
2022/07/17 07:56:06;;;;;;;7.08;1.62;;;;;;;20.38;53.12;99652.95;2171540;81;20925;-81
2022/07/17 07:59:06;;;;;;;3.80;1.80;;;;;;;20.34;54.32;99654.78;2171381;82;20984;-80
2022/07/17 08:02:07;;;;;;;5.28;1.62;;;;;;;20.74;54.29;99656.84;2171334;81;20965;-80
2022/07/17 08:05:07;;;;;;;3.77;1.77;;;;;;;20.98;53.34;99651.15;2171455;81;20940;-80
2022/07/17 08:08:07;;;;;;;4.00;1.52;;;;;;;20.89;50.25;99666.35;2171759;81;20913;-80
2022/07/17 08:11:08;;;;;;;5.03;1.55;;;;;;;20.86;49.26;99663.75;2172016;82;20984;-81
2022/07/17 08:14:08;;;;;;;3.58;1.60;;;;;;;21.20;51.12;99661.38;2172017;81;20881;-81
2022/07/17 08:17:09;;;;;;;6.28;1.82;;;;;;;21.29;51.29;99664.77;2170914;81;20934;-80
2022/07/17 08:20:09;;;;;;;3.35;1.70;;;;;;;21.04;51.37;99669.20;2171615;81;21262;-80
2022/07/17 08:23:09;;;;;;;6.78;1.42;;;;;;;21.23;47.08;99666.67;2171583;81;20913;-81
2022/07/17 08:26:10;;;;;;;6.42;1.37;;;;;;;21.35;47.59;99661.12;2172262;81;20913;-81
2022/07/17 08:29:10;;;;;;;6.37;1.47;;;;;;;21.29;46.19;99666.10;2171515;81;21020;-80
2022/07/17 08:32:11;;;;;;;4.95;1.40;;;;;;;21.17;48.17;99670.73;2172316;81;20961;-80
2022/07/17 08:35:11;;;;;;;7.53;1.22;;;;;;;21.53;45.83;99674.05;2171311;81;20919;-81
2022/07/17 08:38:12;;;;;;;1.98;1.17;;;;;;;21.44;44.80;99672.91;2171567;81;20909;-80
2022/07/17 08:41:15;;;;;;;7.40;1.60;;;;;;;21.48;46.01;99673.27;2171288;81;20957;-80
2022/07/17 08:44:12;;;;;;;1.82;1.17;;;;;;;21.93;45.24;99673.28;2171151;82;20965;-81
2022/07/17 08:47:13;;;;;;;3.02;1.37;;;;;;;22.18;43.96;99686.50;2172134;81;20969;-79
2022/07/17 08:50:13;;;;;;;2.33;1.30;;;;;;;22.12;44.60;99673.80;2172401;81;20953;-81
2022/07/17 08:53:13;;;;;;;1.87;1.10;;;;;;;22.19;41.94;99682.06;2171380;81;20941;-79
2022/07/17 08:56:14;;;;;;;2.80;0.88;;;;;;;22.09;41.91;99676.52;2170384;81;21013;-80
2022/07/17 08:59:14;;;;;;;3.70;1.20;;;;;;;21.90;42.21;99685.31;2172252;82;20988;-80
2022/07/17 09:02:15;;;;;;;3.83;1.20;;;;;;;21.75;42.57;99681.19;2171767;81;21273;-82
2022/07/17 09:05:15;;;;;;;2.55;1.82;;;;;;;21.92;42.54;99675.06;2171395;81;20933;-81
2022/07/17 09:08:16;;;;;;;5.08;1.30;;;;;;;21.63;42.05;99676.08;2171670;81;20921;-80
2022/07/17 09:11:16;;;;;;;1.92;1.02;;;;;;;21.90;43.21;99670.69;2171789;81;21301;-81
2022/07/17 09:14:16;;;;;;;3.00;1.37;;;;;;;22.26;40.38;99682.34;2171264;81;20926;-81
2022/07/17 09:17:17;;;;;;;2.70;1.10;;;;;;;22.39;40.60;99678.95;2171208;81;20901;-82
2022/07/17 09:20:19;;;;;;;5.15;1.15;;;;;;;22.48;40.02;99677.41;2171317;82;20945;-81
2022/07/17 09:23:18;;;;;;;2.62;1.20;;;;;;;21.96;40.19;99683.85;2171456;81;20976;-80
2022/07/17 09:26:18;;;;;;;2.50;1.40;;;;;;;21.75;40.64;99684.30;2171215;81;20919;-81
2022/07/17 09:29:18;;;;;;;2.25;1.15;;;;;;;21.58;40.87;99687.25;2171318;81;21017;-83
2022/07/17 09:32:19;;;;;;;1.90;1.50;;;;;;;21.55;41.24;99683.33;2171849;80;20913;-81
2022/07/17 09:35:19;;;;;;;2.30;1.40;;;;;;;22.07;41.19;99681.87;2171593;81;21328;-81
2022/07/17 09:38:20;;;;;;;2.35;1.10;;;;;;;22.21;40.15;99693.09;2171485;81;20922;-81
2022/07/17 09:41:21;;;;;;;4.40;2.42;;;;;;;22.09;40.42;99678.73;2171665;81;20926;-81
2022/07/17 09:44:20;;;;;;;5.08;1.57;;;;;;;21.95;40.41;99680.77;2171660;82;21324;-82
2022/07/17 09:47:21;;;;;;;2.80;1.10;;;;;;;22.25;41.10;99676.16;2171860;81;20909;-81
2022/07/17 09:50:21;;;;;;;3.30;1.40;;;;;;;22.46;40.33;99692.08;2171567;81;20933;-80
2022/07/17 09:53:22;;;;;;;3.60;1.20;;;;;;;22.24;40.99;99679.72;2171221;81;20945;-80
2022/07/17 09:56:22;;;;;;;1.12;0.95;;;;;;;22.43;41.10;99675.31;2171247;81;20909;-81
2022/07/17 09:59:23;;;;;;;8.33;2.20;;;;;;;22.12;40.17;99686.64;2171460;81;20948;-80
2022/07/17 10:02:24;;;;;;;2.95;1.80;;;;;;;22.47;40.60;99682.31;2171274;81;20893;-83
2022/07/17 10:05:23;;;;;;;4.30;1.30;;;;;;;22.54;40.58;99684.83;2171362;81;20910;-81
2022/07/17 10:08:24;;;;;;;4.25;1.40;;;;;;;22.84;39.41;99683.25;2171013;81;20952;-80
2022/07/17 10:11:24;;;;;;;3.37;1.27;;;;;;;22.77;39.91;99693.59;2171618;82;20977;-80
2022/07/17 10:14:24;;;;;;;4.78;1.37;;;;;;;22.83;40.26;99680.17;2171309;81;20929;-81
2022/07/17 10:17:25;;;;;;;2.35;1.25;;;;;;;22.34;41.01;99684.83;2171464;81;20992;-81
2022/07/17 10:20:25;;;;;;;3.55;1.30;;;;;;;22.24;41.69;99690.36;2171319;81;20889;-81
2022/07/17 10:23:26;;;;;;;5.33;1.60;;;;;;;22.27;40.04;99683.22;2171001;81;21316;-80
2022/07/17 10:26:26;;;;;;;4.47;1.30;;;;;;;22.74;41.11;99686.14;2170852;81;20925;-80
2022/07/17 10:29:26;;;;;;;2.80;0.95;;;;;;;23.19;39.11;99684.14;2169969;81;20969;-80
2022/07/17 10:32:27;;;;;;;1.37;0.90;;;;;;;23.04;38.88;99683.20;2170024;81;20921;-80
2022/07/17 10:35:27;;;;;;;4.30;1.10;;;;;;;22.69;38.51;99687.58;2170449;81;20988;-80
2022/07/17 10:38:28;;;;;;;4.45;1.30;;;;;;;22.36;40.41;99692.33;2170386;81;20893;-81
2022/07/17 10:41:28;;;;;;;1.98;1.22;;;;;;;22.11;41.66;99694.19;2170267;82;21237;-80
2022/07/17 10:44:28;;;;;;;2.67;1.07;;;;;;;21.84;41.65;99700.05;2170463;81;20992;-80
2022/07/17 10:47:29;;;;;;;1.47;0.90;;;;;;;22.25;42.05;99690.78;2170560;81;20909;-81
2022/07/17 10:50:29;;;;;;;3.83;1.20;;;;;;;22.66;40.87;99684.99;2170817;82;20940;-81
2022/07/17 10:53:30;;;;;;;5.03;1.47;;;;;;;23.04;40.33;99681.42;2170727;82;20902;-79
2022/07/17 10:56:31;;;;;;;3.85;1.40;;;;;;;23.45;39.07;99680.36;2170727;81;20894;-80
2022/07/17 10:59:31;;;;;;;2.45;1.20;;;;;;;23.56;38.78;99681.89;2171187;81;20948;-80
2022/07/17 11:02:31;;;;;;;3.08;1.20;;;;;;;23.55;38.28;99678.34;2171169;81;20945;-81
2022/07/17 11:05:31;;;;;;;2.67;1.12;;;;;;;23.35;37.82;99679.28;2171299;81;21021;-80
2022/07/17 11:08:32;;;;;;;3.92;1.20;;;;;;;23.03;38.40;99683.66;2171328;81;20921;-80
2022/07/17 11:11:32;;;;;;;2.72;1.20;;;;;;;22.99;38.17;99682.45;2171306;81;20996;-81
2022/07/17 11:14:33;;;;;;;1.45;1.10;;;;;;;22.92;37.94;99675.53;2171583;81;20921;-81
2022/07/17 11:17:33;;;;;;;4.12;1.17;;;;;;;23.05;37.38;99676.97;2171571;81;20911;-82
2022/07/17 11:20:33;;;;;;;3.10;1.20;;;;;;;23.39;38.40;99675.16;2171459;81;21249;-82
2022/07/17 11:23:34;;;;;;;2.25;1.10;;;;;;;23.51;35.91;99671.32;2171442;81;20940;-81
2022/07/17 11:26:34;;;;;;;3.58;1.12;;;;;;;23.54;36.62;99689.02;2171543;81;20949;-81
2022/07/17 11:29:35;;;;;;;1.42;1.00;;;;;;;23.30;36.89;99679.41;2171594;81;21301;-83
2022/07/17 11:32:35;;;;;;;2.65;1.45;;;;;;;23.32;35.90;99677.58;2171720;81;20898;-80
2022/07/17 11:35:35;;;;;;;2.45;1.07;;;;;;;23.43;35.64;99671.53;2171776;81;20905;-81
2022/07/17 11:38:36;;;;;;;3.33;1.15;;;;;;;23.48;35.76;99685.60;2171998;81;20913;-80
2022/07/17 11:41:36;;;;;;;1.52;0.98;;;;;;;23.05;35.59;99691.61;2172308;81;20909;-85
2022/07/17 11:44:37;;;;;;;2.20;1.02;;;;;;;22.52;36.98;99685.73;2171944;81;20932;-82
2022/07/17 11:47:37;;;;;;;2.15;1.40;;;;;;;22.29;37.88;99680.07;2171676;81;20925;-81
2022/07/17 11:50:37;;;;;;;1.77;0.93;;;;;;;22.57;38.63;99679.89;2171309;81;21360;-82
2022/07/17 11:53:38;;;;;;;5.03;1.62;;;;;;;22.58;38.71;99677.65;2171127;81;20933;-82
2022/07/17 11:56:38;;;;;;;4.17;1.27;;;;;;;22.70;37.58;99688.00;2171578;82;20934;-82
2022/07/17 11:59:39;;;;;;;4.67;1.00;;;;;;;22.70;36.74;99678.69;2171690;81;20913;-81
2022/07/17 12:02:39;;;;;;;4.75;1.20;;;;;;;22.75;36.77;99665.27;2171535;82;21293;-83
2022/07/17 12:05:40;;;;;;;2.17;1.12;;;;;;;22.45;37.67;99674.82;2171442;81;20938;-81
2022/07/17 12:08:40;;;;;;;5.03;1.22;;;;;;;22.14;37.62;99683.48;2171253;81;20921;-81
2022/07/17 12:11:40;;;;;;;1.95;1.02;;;;;;;22.21;38.14;99677.12;2171564;81;20945;-81
2022/07/17 12:14:41;;;;;;;2.02;1.30;;;;;;;22.35;37.60;99672.83;2171647;80;20975;-82
2022/07/17 12:17:46;;;;;;;3.98;1.30;;;;;;;22.71;38.94;99677.77;2171564;81;20905;-82
2022/07/17 12:20:43;;;;;;;3.15;1.47;;;;;;;23.13;36.53;99674.98;2162785;82;20929;-81
2022/07/17 12:23:44;;;;;;;5.22;1.35;;;;;;;23.43;35.95;99679.53;2171630;81;20981;-81
2022/07/17 12:26:44;;;;;;;2.60;1.30;;;;;;;23.33;35.71;99667.34;2171637;80;20945;-83
2022/07/17 12:29:45;;;;;;;1.90;1.07;;;;;;;23.05;36.64;99672.52;2171591;81;20901;-82
2022/07/17 12:32:47;;;;;;;3.40;1.77;;;;;;;22.80;37.31;99670.05;2171355;81;20929;-82
2022/07/17 12:35:45;;;;;;;2.80;1.27;;;;;;;22.69;36.82;99672.06;2171255;80;20921;-82
2022/07/17 12:38:46;;;;;;;3.17;1.50;;;;;;;22.72;37.24;99667.55;2171457;81;20877;-82
2022/07/17 12:41:46;;;;;;;3.33;1.37;;;;;;;23.03;37.16;99672.14;2171299;81;20945;-81
2022/07/17 12:44:47;;;;;;;6.03;1.95;;;;;;;23.42;37.16;99672.91;2170854;81;20937;-81
2022/07/17 12:47:47;;;;;;;3.05;1.55;;;;;;;23.83;35.61;99674.44;2171154;81;20921;-83
2022/07/17 12:50:47;;;;;;;4.20;1.62;;;;;;;24.06;36.20;99665.77;2171339;80;20897;-83
2022/07/17 12:53:48;;;;;;;3.87;1.30;;;;;;;24.23;35.98;99667.92;2171256;81;20924;-81
2022/07/17 12:56:48;;;;;;;2.98;1.35;;;;;;;24.34;34.80;99665.41;2171160;81;20932;-81
2022/07/17 12:59:49;;;;;;;3.45;1.60;;;;;;;24.25;33.87;99665.63;2171396;81;20878;-82
2022/07/17 13:02:49;;;;;;;7.80;1.65;;;;;;;24.41;32.95;99664.29;2171388;81;21284;-82
2022/07/17 13:05:49;;;;;;;4.87;1.80;;;;;;;24.50;33.64;99672.47;2170947;81;20977;-82
2022/07/17 13:08:50;;;;;;;2.60;1.47;;;;;;;24.51;34.86;99668.00;2171381;81;20947;-82
2022/07/17 13:11:51;;;;;;;4.75;1.90;;;;;;;24.75;34.97;99672.09;2171861;81;20943;-81
2022/07/17 13:14:51;;;;;;;8.08;1.55;;;;;;;24.95;34.56;99667.88;2173525;82;20885;-82
2022/07/17 13:17:51;;;;;;;4.28;1.47;;;;;;;25.32;34.64;99661.75;2173457;82;20941;-83
2022/07/17 13:20:51;;;;;;;4.25;1.75;;;;;;;25.36;33.10;99666.52;2173626;82;20906;-82
2022/07/17 13:23:52;;;;;;;4.40;1.75;;;;;;;25.20;32.88;99670.19;2173532;82;20945;-81
2022/07/17 13:26:52;;;;;;;7.58;4.03;;;;;;;25.13;33.45;99659.73;2173480;82;20925;-82
2022/07/17 13:29:53;;;;;;;5.10;1.87;;;;;;;25.35;32.72;99660.77;2173328;81;20913;-82
2022/07/17 13:32:53;;;;;;;2.50;1.40;;;;;;;25.46;33.58;99657.71;2173009;81;20913;-81
2022/07/17 13:35:55;;;;;;;4.85;1.45;;;;;;;25.72;33.58;99654.99;2173149;81;20957;-81
2022/07/17 13:38:54;;;;;;;3.12;1.30;;;;;;;25.99;33.67;99661.98;2173348;81;20945;-81
2022/07/17 13:41:55;;;;;;;2.62;1.30;;;;;;;26.08;31.73;99655.91;2173320;81;20902;-81
2022/07/17 13:44:55;;;;;;;4.25;1.85;;;;;;;25.86;32.01;99659.36;2173549;81;20949;-82
2022/07/17 13:47:56;;;;;;;2.83;1.37;;;;;;;26.05;32.49;99657.36;2173417;81;20917;-82
2022/07/17 13:50:56;;;;;;;2.72;1.47;;;;;;;26.07;31.18;99663.52;2173314;81;21301;-81
2022/07/17 13:53:56;;;;;;;6.20;1.60;;;;;;;26.02;32.08;99654.33;2173262;81;20929;-82
2022/07/17 13:56:57;;;;;;;3.17;1.60;;;;;;;25.66;31.45;99657.89;2173497;81;20909;-81
2022/07/17 13:59:57;;;;;;;4.20;1.40;;;;;;;25.24;32.15;99653.59;2173327;81;20969;-81
2022/07/17 14:02:57;;;;;;;1.80;1.40;;;;;;;24.83;31.48;99649.60;2172963;81;20965;-81
2022/07/17 14:05:58;;;;;;;4.28;1.70;;;;;;;24.41;32.62;99655.41;2173448;81;20957;-81
2022/07/17 14:08:58;;;;;;;4.20;1.60;;;;;;;24.23;32.60;99648.79;2173545;81;20877;-81